createdAt,value
2017-07-03T20:29:36.992Z,41.3
2017-07-03T20:30:38.644Z,41.6
2017-07-03T20:32:31.720Z,41.4
2017-07-03T20:33:33.450Z,41.4
2017-07-03T20:34:37.055Z,41.6
2017-07-03T20:35:38.692Z,41.5
2017-07-03T20:36:40.358Z,41.2
2017-07-03T20:37:42.025Z,41.4
2017-07-03T20:40:41.587Z,41.0
2017-07-03T20:41:43.243Z,41.1
2017-07-03T20:42:45.599Z,41.5
2017-07-03T20:43:47.812Z,41.8
2017-07-03T20:44:49.802Z,42.2
2017-07-03T20:45:51.464Z,42.1
2017-07-03T20:46:53.894Z,41.9
2017-07-03T20:47:55.571Z,42.1
2017-07-03T20:48:57.392Z,43.0
2017-07-03T20:49:59.479Z,40.9
2017-07-03T20:51:01.361Z,40.1
2017-07-03T20:52:03.037Z,40.6
2017-07-03T20:55:19.309Z,51.8
2017-07-03T20:56:20.994Z,56.2
2017-07-03T20:57:22.658Z,52.6
2017-07-03T20:58:24.328Z,50.2
2017-07-03T20:59:26.018Z,56.8
2017-07-03T21:00:29.144Z,54.8
2017-07-03T21:01:30.873Z,55.4
2017-07-03T21:02:32.781Z,57.9
2017-07-03T21:03:35.587Z,57.4
2017-07-03T21:04:37.321Z,59.3
2017-07-03T21:05:39.012Z,46.9
2017-07-03T21:06:40.677Z,48.0
2017-07-03T21:07:42.369Z,49.1
2017-07-03T21:10:45.482Z,46.6
2017-07-03T21:11:47.162Z,45.8
2017-07-03T21:12:48.866Z,46.1
2017-07-03T21:13:50.520Z,46.7
2017-07-03T21:14:52.182Z,47.0
2017-07-03T21:15:53.846Z,47.3
2017-07-03T21:16:55.501Z,47.8
2017-07-03T21:17:57.162Z,49.0
2017-07-03T21:18:58.806Z,48.1
2017-07-03T21:20:00.465Z,48.9
2017-07-03T21:21:02.125Z,48.0
2017-07-03T21:22:03.789Z,49.1
2017-07-03T21:23:05.464Z,49.3
2017-07-03T21:24:07.136Z,49.8
2017-07-03T21:25:08.788Z,50.1
2017-07-03T21:26:10.457Z,51.0
2017-07-03T21:27:12.110Z,51.3
2017-07-03T21:28:13.766Z,51.8
2017-07-03T21:29:15.429Z,51.6
2017-07-03T21:30:17.087Z,51.3
2017-07-03T21:31:18.746Z,51.3
2017-07-03T21:32:20.406Z,51.2
2017-07-03T21:33:22.078Z,51.5
2017-07-03T21:34:23.731Z,51.9
2017-07-03T21:35:25.512Z,51.5
2017-07-03T21:36:27.172Z,51.8
2017-07-03T21:37:29.074Z,51.3
2017-07-03T21:38:30.724Z,51.6
2017-07-03T21:39:32.381Z,52.3
2017-07-03T21:40:34.036Z,52.2
2017-07-03T21:41:35.693Z,52.5
2017-07-03T21:42:37.348Z,53.3
2017-07-03T21:43:39.093Z,52.8
2017-07-03T21:44:40.745Z,52.9
2017-07-03T21:45:42.402Z,53.0
2017-07-03T21:46:44.058Z,53.0
2017-07-03T21:47:45.713Z,52.9
2017-07-03T21:48:47.371Z,53.2
2017-07-03T21:49:49.045Z,52.8
2017-07-03T21:50:50.749Z,53.2
2017-07-03T21:51:52.428Z,53.1
2017-07-03T21:52:54.106Z,53.2
2017-07-03T21:53:55.770Z,53.4
2017-07-03T21:54:57.431Z,53.3
2017-07-03T21:55:59.093Z,53.8
2017-07-03T21:57:00.757Z,53.9
2017-07-03T21:58:02.421Z,54.1
2017-07-03T21:59:04.081Z,53.7
2017-07-03T22:00:05.737Z,53.7
2017-07-03T22:01:07.404Z,54.6
2017-07-03T22:02:09.071Z,54.8
2017-07-03T22:03:10.730Z,54.5
2017-07-03T22:04:12.384Z,54.9
2017-07-03T22:05:14.052Z,54.7
2017-07-03T22:06:15.725Z,55.1
2017-07-03T22:07:17.370Z,55.9
2017-07-03T22:08:19.028Z,55.3
2017-07-03T22:09:20.705Z,55.6
2017-07-03T22:10:22.352Z,55.8
2017-07-03T22:11:24.006Z,55.4
2017-07-03T22:12:25.701Z,55.4
2017-07-03T22:13:27.351Z,56.1
2017-07-03T22:14:29.008Z,56.0
2017-07-03T22:15:30.669Z,56.0
2017-07-03T22:16:32.318Z,56.4
2017-07-03T22:17:33.976Z,56.6
2017-07-03T22:18:35.634Z,55.5
2017-07-03T22:19:37.403Z,56.1
2017-07-03T22:20:39.063Z,56.0
2017-07-03T22:21:40.730Z,55.8
2017-07-03T22:22:42.392Z,56.1
2017-07-03T22:23:44.045Z,56.3
2017-07-03T22:24:45.708Z,56.5
2017-07-03T22:25:47.365Z,56.5
2017-07-03T22:26:49.018Z,56.3
2017-07-03T22:27:50.669Z,56.4
2017-07-03T22:28:52.331Z,56.7
2017-07-03T22:29:53.991Z,56.5
2017-07-03T22:30:55.664Z,56.4
2017-07-03T22:31:57.320Z,56.4
2017-07-03T22:32:58.976Z,56.2
2017-07-03T22:34:00.625Z,55.6
2017-07-03T22:35:02.280Z,54.9
2017-07-03T22:36:03.941Z,55.7
2017-07-03T22:37:05.599Z,55.4
2017-07-03T22:38:07.253Z,56.0
2017-07-03T22:39:08.910Z,56.1
2017-07-03T22:40:10.558Z,57.1
2017-07-03T22:41:12.210Z,56.4
2017-07-03T22:42:13.867Z,57.1
2017-07-03T22:43:15.518Z,56.9
2017-07-03T22:44:17.175Z,57.0
2017-07-03T22:45:18.838Z,56.7
2017-07-03T22:46:20.491Z,57.0
2017-07-03T22:47:22.149Z,57.2
2017-07-03T22:48:23.809Z,57.4
2017-07-03T22:49:25.521Z,57.1
2017-07-03T22:50:27.191Z,57.1
2017-07-03T22:51:28.858Z,57.3
2017-07-03T22:52:30.508Z,57.8
2017-07-03T22:53:32.158Z,57.1
2017-07-03T22:54:33.817Z,57.1
2017-07-03T22:55:35.471Z,57.4
2017-07-03T22:56:37.129Z,57.1
2017-07-03T22:57:38.788Z,57.9
2017-07-03T22:58:40.445Z,58.0
2017-07-03T22:59:42.097Z,58.4
2017-07-03T23:00:43.760Z,58.8
2017-07-03T23:01:45.414Z,59.1
2017-07-03T23:02:47.078Z,59.3
2017-07-03T23:03:48.726Z,59.2
2017-07-03T23:04:50.380Z,59.6
2017-07-03T23:05:52.053Z,59.1
2017-07-03T23:06:53.708Z,59.1
2017-07-03T23:07:55.377Z,58.8
2017-07-03T23:08:57.032Z,59.0
2017-07-03T23:09:58.681Z,59.0
2017-07-03T23:11:00.342Z,59.4
2017-07-03T23:12:02.002Z,60.1
2017-07-03T23:13:03.657Z,60.2
2017-07-03T23:14:05.317Z,60.4
2017-07-03T23:15:06.976Z,60.0
2017-07-03T23:16:08.625Z,60.1
2017-07-03T23:17:10.294Z,60.2
2017-07-03T23:18:11.949Z,60.0
2017-07-03T23:19:13.612Z,60.3
2017-07-03T23:20:15.275Z,59.9
2017-07-03T23:21:16.928Z,60.4
2017-07-03T23:22:18.581Z,60.8
2017-07-03T23:23:20.234Z,61.2
2017-07-03T23:24:21.893Z,60.8
2017-07-03T23:25:23.549Z,61.3
2017-07-03T23:26:25.212Z,61.9
2017-07-03T23:27:26.870Z,61.0
2017-07-03T23:28:28.532Z,60.0
2017-07-03T23:29:30.184Z,61.9
2017-07-03T23:30:31.841Z,61.3
2017-07-03T23:31:33.496Z,61.8
2017-07-03T23:32:35.144Z,61.8
2017-07-03T23:33:36.797Z,61.8
2017-07-03T23:34:38.454Z,62.3
2017-07-03T23:35:40.110Z,61.6
2017-07-03T23:36:41.771Z,62.1
2017-07-03T23:37:43.423Z,61.9
2017-07-03T23:38:45.081Z,61.9
2017-07-03T23:39:46.733Z,62.3
2017-07-03T23:40:48.385Z,61.9
2017-07-03T23:41:50.045Z,62.2
2017-07-03T23:42:51.693Z,62.7
2017-07-03T23:43:53.353Z,62.8
2017-07-03T23:44:55.015Z,61.7
2017-07-03T23:45:56.683Z,62.6
2017-07-03T23:46:58.350Z,63.5
2017-07-03T23:48:00.001Z,63.9
2017-07-03T23:49:01.663Z,64.3
2017-07-03T23:50:03.312Z,63.8
2017-07-03T23:51:04.966Z,63.7
2017-07-03T23:52:06.619Z,64.2
2017-07-03T23:53:08.272Z,64.2
2017-07-03T23:54:09.928Z,63.8
2017-07-03T23:55:11.581Z,64.3
2017-07-03T23:56:13.238Z,63.7
2017-07-03T23:57:14.900Z,63.8
2017-07-03T23:58:16.557Z,63.7
2017-07-03T23:59:18.209Z,64.4
